METAR stanice u blizini

 

LYBE - Beograd / Surčin, Srbija
Ažurirano: 18/06/2019 21:30
Heavy thunderstorm, Padavine, Pretežno oblačno
Heavy thunderstorm, Padavine, Pretežno oblačno
 Pravac vetra JI
Vetar: JI 37 km/h
Temperatura: 22°C
Tačka rose: 18°C
Vlažnost: 78%
Pritisak: 1016 hPa
Pregled: Heavy thunderstorm, Padavine
Oblaci: Mostly Cloudy
Vidljivost: 3 km
Cloud details: Mostly Cloudy 1006 m
2019/06/18 19:30 LYBE 181930Z 14020KT 3000 +TSRA BKN033CB 22/18 Q1016 NOSIG
LYBT - Beograd / Batajnica, Srbija
Ažurirano: 18/06/2019 21:30
Thunderstorm, Delimično oblačno
Thunderstorm, Delimično oblačno
 Pravac vetra JJI
Vetar: JJI 11 km/h
Temperatura: 21°C
Tačka rose: 19°C
Vlažnost: 88%
Pritisak: 1015 hPa
Pregled: Thunderstorm
Oblaci: Partly Cloudy
Vidljivost: 10 km
Cloud details: Partly Cloudy 1006 m
Partly Cloudy 1219 m
2019/06/18 19:30 LYBT 181930Z 15006KT 120V190 9999 TS SCT033CB SCT040 21/19 Q1015 TEMPO 14018G30KT 2000 TSRA SCT030CB SCT033
LYVR - Vršac, Srbija
Ažurirano: 18/06/2019 21:30
Vedro
Vedro
 Pravac vetra varies
Vetar: varies 4 km/h
Temperatura: 22°C
Tačka rose: 20°C
Vlažnost: 88%
Pritisak: 1015 hPa
Pregled: Vedro
Vidljivost: greater than 10 km
2019/06/18 19:30 LYVR 181930Z VRB02KT CAVOK 22/20 Q1015 NOSIG
 
LYKV - Lađevci, Srbija
Ažurirano: 18/06/2019 21:30
Partly Cloudy
Partly Cloudy
 Pravac vetra varies
Vetar: varies 4 km/h
Temperatura: 17°C
Tačka rose: 17°C
Vlažnost: 100%
Pritisak: 1016 hPa
Oblaci: Partly Cloudy
Vidljivost: 10 km
Cloud details: Partly Cloudy 1219 m
2019/06/18 19:30 LYKV 181930Z VRB02KT 9999 SCT040 17/17 Q1016 NOSIG
LYNI - Niš, Srbija
Ažurirano: 18/06/2019 21:30
Vedro
Vedro
 Pravac vetra Z
Vetar: Z 2 km/h
Temperatura: 18°C
Tačka rose: 17°C
Vlažnost: 94%
Pritisak: 1015 hPa
Pregled: Vedro
Vidljivost: greater than 10 km
2019/06/18 19:30 LYNI 181930Z 27001KT CAVOK 18/17 Q1015 NOSIG
BKPR - Priština, Srbija
Ažurirano: 18/06/2019 21:30
Mostly Cloudy
Mostly Cloudy
 Pravac vetra ZSZ
Vetar: ZSZ 13 km/h
Temperatura: 20°C
Tačka rose: 11°C
Vlažnost: 56%
Pritisak: 1017 hPa
Oblaci: Mostly Cloudy
Vidljivost: 10 km
Cloud details: Few Clouds 1067 m
Partly Cloudy 1524 m
Mostly Cloudy 3658 m
2019/06/18 19:30 BKPR 181930Z 30007KT 9999 FEW035CB SCT050 BKN120 20/11 Q1017 NOSIG
 
LHPP - Pecs / Pogany, Hungary
Ažurirano: 18/06/2019 19:15
NOT Current
Mostly Cloudy
Mostly Cloudy
 Pravac vetra I
Vetar: I 11 km/h
Temperatura: 24°C
Tačka rose: 20°C
Vlažnost: 78%
Pritisak: 1015 hPa
Oblaci: Mostly Cloudy
Vidljivost: 10 km
Cloud details: Mostly Cloudy 1006 m
2019/06/18 17:15 LHPP 181715Z 10006KT 9999 BKN033CB 24/20 Q1015 RESHRA
LHUD - Szeged, Hungary
Ažurirano: 18/06/2019 17:45
NOT Current
Partly Cloudy
Partly Cloudy
 Pravac vetra Z
Vetar: Z 9 km/h
Temperatura: 23°C
Tačka rose: 17°C
Vlažnost: 69%
Pritisak: 1015 hPa
Oblaci: Partly Cloudy
Vidljivost: 10 km
Cloud details: Partly Cloudy 1006 m
Partly Cloudy 2530 m
2019/06/18 15:45 LHUD 181545Z 27005KT 9999 SCT033CB SCT083 23/17 Q1015 RETS
LRTR - Timisoara, Romania
Ažurirano: 18/06/2019 21:30
Vedro
Vedro
 Pravac vetra SSI
Vetar: SSI 7 km/h
Temperatura: 21°C
Tačka rose: 20°C
Vlažnost: 94%
Pritisak: 1014 hPa
Pregled: Vedro
Vidljivost: greater than 10 km
2019/06/18 19:30 LRTR 181930Z 03004KT CAVOK 21/20 Q1014 NOSIG
 
LRCV - Craiova, Romania
Ažurirano: 18/06/2019 21:30
Oblačno
Oblačno
 Pravac vetra SSI
Vetar: SSI 7 km/h
Temperatura: 20°C
Tačka rose: 17°C
Vlažnost: 83%
Pritisak: 1016 hPa
Oblaci: Oblačno
Vidljivost: 10 km
Cloud details: Oblačno 3962 m
2019/06/18 19:30 LRCV 181930Z AUTO 03004KT 9999 OVC130/// 20/17 Q1016
LBSF - Sofia, Bulgaria
Ažurirano: 18/06/2019 21:30
Vedro
Vedro
 Pravac vetra J
Vetar: J 9 km/h
Temperatura: 21°C
Tačka rose: 17°C
Vlažnost: 78%
Pritisak: 1017 hPa
Pregled: Vedro
Vidljivost: greater than 10 km
2019/06/18 19:30 LBSF 181930Z 18005KT 150V260 CAVOK 21/17 Q1017 NOSIG
LWSK - Skoplje, Makedonija
Ažurirano: 18/06/2019 21:30
Few Clouds
Few Clouds
 Pravac vetra JJI
Vetar: JJI 2 km/h
Temperatura: 20°C
Tačka rose: 17°C
Vlažnost: 83%
Pritisak: 1015 hPa
Oblaci: Few Clouds
Vidljivost: 10 km
Cloud details: Few Clouds 1524 m
2019/06/18 19:30 LWSK 181930Z 16001KT 9999 FEW050 20/17 Q1015 NOSIG
 
LYPG - Podgorica, Crna Gora
Ažurirano: 18/06/2019 21:30
Vedro
Vedro
 Pravac vetra SZ
Vetar: SZ 15 km/h
Temperatura: 25°C
Tačka rose: 14°C
Vlažnost: 51%
Pritisak: 1013 hPa
Pregled: Vedro
Vidljivost: greater than 10 km
2019/06/18 19:30 LYPG 181930Z 31008KT CAVOK 25/14 Q1013 NOSIG
LQSA - Sarajevo, Bosna i Hercegovina
Ažurirano: 18/06/2019 21:30
Vedro
Vedro
 Pravac vetra IJI
Vetar: IJI 7 km/h
Temperatura: 19°C
Tačka rose: 16°C
Vlažnost: 83%
Pritisak: 1017 hPa
Pregled: Vedro
Vidljivost: greater than 10 km
2019/06/18 19:30 LQSA 181930Z 12004KT 090V170 CAVOK 19/16 Q1017 NOSIG
LDOS - Osijek, Hrvatksa
Ažurirano: 18/06/2019 21:30
Partly Cloudy
Partly Cloudy
 Pravac vetra J
Vetar: J 7 km/h
Temperatura: 23°C
Tačka rose: 21°C
Vlažnost: 89%
Pritisak: 1014 hPa
Oblaci: Partly Cloudy
Vidljivost: 10 km
Cloud details: Few Clouds 823 m
Partly Cloudy 1006 m
2019/06/18 19:30 LDOS 181930Z 17004KT 9999 FEW027TCU SCT033 23/21 Q1014